Time;durP1;ratioP1;P1;durP2;ratioP2;P2;SDS_P1;SDS_P2;PMS_P1;PMS_P2;Temp;Humidity;BMP_temperature;BMP_pressure;BME280_temperature;BME280_humidity;BME280_pressure;Samples;Min_cycle;Max_cycle;Signal;HPM_P1;HPM_P2
2022/01/16 00:00:26;;;;;;;27.80;10.68;;;;;;;-1.26;58.63;97633.94;5076201;28;20434;-61
2022/01/16 00:05:25;;;;;;;15.73;5.95;;;;;;;-0.61;60.12;97745.03;5065737;28;20060;-62
2022/01/16 00:07:53;;;;;;;17.50;6.60;;;;;;;-0.64;59.55;97740.16;5065846;28;20063;-60
2022/01/16 00:10:20;;;;;;;26.38;7.60;;;;;;;-0.43;59.74;97766.16;5063903;28;20052;-61
2022/01/16 00:12:48;;;;;;;19.55;8.43;;;;;;;-0.52;59.50;97767.84;5065692;28;20808;-60
2022/01/16 00:15:17;;;;;;;29.45;9.10;;;;;;;-0.69;59.19;97780.97;5065179;28;20075;-60
2022/01/16 00:20:22;;;;;;;19.15;6.43;;;;;;;-0.93;62.30;97799.06;5065490;28;20083;-61
2022/01/16 00:22:49;;;;;;;15.05;5.88;;;;;;;-1.05;60.74;97782.25;5065589;28;20064;-62
2022/01/16 00:25:16;;;;;;;18.70;6.43;;;;;;;-0.81;59.98;97821.31;5065025;28;20430;-60
2022/01/16 00:27:43;;;;;;;20.17;7.38;;;;;;;-1.24;60.42;97741.28;5065196;28;20096;-62
2022/01/16 00:30:11;;;;;;;18.42;6.50;;;;;;;-0.83;61.65;97828.91;5064879;28;20078;-63
2022/01/16 00:32:38;;;;;;;20.85;6.40;;;;;;;-1.00;61.63;97847.47;5065658;28;20067;-61
2022/01/16 00:35:05;;;;;;;14.68;4.47;;;;;;;-1.49;61.52;97809.28;5065014;28;20712;-61
2022/01/16 00:37:32;;;;;;;14.95;5.55;;;;;;;-1.05;63.25;97940.72;5064937;28;20056;-60
2022/01/16 00:39:59;;;;;;;18.27;4.30;;;;;;;-1.49;63.25;97851.94;5065303;28;20079;-61
2022/01/16 00:42:25;;;;;;;16.17;4.85;;;;;;;-1.04;62.39;97849.94;5064168;28;20055;-60
2022/01/16 00:44:52;;;;;;;14.32;4.30;;;;;;;-1.12;63.49;97798.06;5065056;28;20059;-61
2022/01/16 00:47:19;;;;;;;13.20;5.40;;;;;;;-1.55;62.54;97718.84;5062657;28;20067;-61
2022/01/16 00:49:46;;;;;;;16.92;5.38;;;;;;;-1.15;62.83;97706.16;5064646;28;20442;-60
2022/01/16 00:52:12;;;;;;;15.20;5.32;;;;;;;-1.03;63.06;97660.47;5063096;28;20060;-60
2022/01/16 00:54:39;;;;;;;16.98;5.13;;;;;;;-1.15;63.06;97670.84;5064555;28;20048;-63
2022/01/16 00:57:06;;;;;;;16.00;4.97;;;;;;;-1.17;63.09;97675.78;5064240;28;20273;-61
2022/01/16 00:59:33;;;;;;;12.43;3.63;;;;;;;-1.14;62.44;97694.22;5065534;28;20051;-60
2022/01/16 01:02:00;;;;;;;12.23;3.83;;;;;;;-2.00;62.81;97580.53;5083185;28;20056;-60
2022/01/16 01:04:27;;;;;;;24.70;7.05;;;;;;;-1.32;64.13;97703.00;5084869;28;20066;-60
2022/01/16 01:06:55;;;;;;;13.90;4.45;;;;;;;-1.59;64.17;97723.22;5084515;28;20058;-62
2022/01/16 01:09:21;;;;;;;9.70;3.70;;;;;;;-1.36;64.37;97765.25;5084629;28;20044;-60
2022/01/16 01:11:50;;;;;;;11.05;3.72;;;;;;;-1.20;64.21;97804.06;5082959;28;20139;-61
2022/01/16 01:14:25;;;;;;;16.08;5.13;;;;;;;-1.63;64.10;97734.91;5084289;28;20052;-61
2022/01/16 01:16:55;;;;;;;19.10;5.88;;;;;;;-1.80;64.58;97686.34;5083305;28;20101;-60
2022/01/16 01:19:26;;;;;;;16.20;4.25;;;;;;;-1.59;63.43;97744.94;5084754;28;20545;-61
2022/01/16 01:21:53;;;;;;;11.15;4.32;;;;;;;-1.39;63.91;97786.72;5083853;28;20052;-61
2022/01/16 01:24:22;;;;;;;21.02;5.57;;;;;;;-2.27;64.29;97639.75;5083955;28;20063;-61
2022/01/16 01:27:01;;;;;;;17.85;5.93;;;;;;;-1.29;63.00;97802.97;5084373;28;20051;-62
2022/01/16 01:29:29;;;;;;;17.95;5.88;;;;;;;-1.27;62.87;97795.38;5084021;28;20066;-60
2022/01/16 01:31:57;;;;;;;14.75;5.25;;;;;;;-1.28;62.96;97805.41;5083674;28;20534;-60
2022/01/16 01:34:24;;;;;;;14.70;5.78;;;;;;;-1.38;63.20;97793.78;5082244;28;20055;-60
2022/01/16 01:36:51;;;;;;;13.68;4.97;;;;;;;-1.39;63.96;97797.59;5083692;28;20125;-60
2022/01/16 01:39:19;;;;;;;16.10;5.22;;;;;;;-1.42;64.77;97809.00;5082304;28;20052;-61
2022/01/16 01:41:49;;;;;;;39.63;11.73;;;;;;;-2.23;64.98;97722.22;5083721;28;20048;-60
2022/01/16 01:52:34;;;;;;;22.38;6.20;;;;;;;-3.39;65.92;97566.06;5084548;28;20534;-62
2022/01/16 01:55:01;;;;;;;32.00;8.52;;;;;;;-2.26;66.82;97777.03;5084172;28;20060;-60
2022/01/16 01:57:28;;;;;;;25.95;8.38;;;;;;;-1.65;66.72;97837.56;5082656;28;20051;-60
2022/01/16 01:59:54;;;;;;;16.90;4.95;;;;;;;-1.75;66.16;97843.81;5078725;28;20088;-61
2022/01/16 02:02:23;;;;;;;12.40;4.55;;;;;;;-1.75;65.82;97832.94;5063805;28;20419;-61
2022/01/16 02:04:50;;;;;;;13.18;4.38;;;;;;;-1.80;65.85;97851.94;5063638;28;20059;-61
2022/01/16 02:07:17;;;;;;;11.13;4.60;;;;;;;-1.80;65.74;97851.94;5063211;28;20066;-62
2022/01/16 02:09:43;;;;;;;14.55;4.78;;;;;;;-1.76;66.79;97847.63;5063463;28;20048;-61
2022/01/16 02:12:11;;;;;;;10.10;3.63;;;;;;;-1.96;66.81;97844.88;5063674;28;20091;-61
2022/01/16 02:14:57;;;;;;;11.80;3.95;;;;;;;-3.04;66.26;97644.66;5063451;28;20151;-63
2022/01/16 02:31:22;;;;;;;42.22;11.45;;;;;;;-1.95;68.11;97865.53;5063341;28;20144;-61
2022/01/16 02:36:45;;;;;;;19.85;6.90;;;;;;;-1.96;66.87;97815.03;5063647;28;20076;-63
2022/01/16 02:39:14;;;;;;;25.92;7.85;;;;;;;-1.78;66.64;97855.22;5061786;28;20130;-61
2022/01/16 02:41:43;;;;;;;42.35;13.98;;;;;;;-1.79;66.25;97853.56;5061487;28;20048;-62
2022/01/16 02:44:22;;;;;;;21.67;7.43;;;;;;;-2.91;66.00;97690.22;5063455;28;20075;-63
2022/01/16 02:46:49;;;;;;;48.85;13.15;;;;;;;-2.05;67.48;97832.94;5061030;28;20052;-62
2022/01/16 02:49:28;;;;;;;18.95;6.47;;;;;;;-1.93;68.08;97857.91;5061979;28;20068;-62
2022/01/16 02:52:09;;;;;;;16.83;6.38;;;;;;;-1.98;68.03;97881.53;5063466;28;20422;-60
2022/01/16 02:54:39;;;;;;;29.02;9.88;;;;;;;-1.99;67.63;97875.28;5061778;28;20064;-62
2022/01/16 02:57:08;;;;;;;27.55;7.88;;;;;;;-2.08;68.38;97870.66;5062654;28;20044;-61
2022/01/16 02:59:36;;;;;;;15.20;6.07;;;;;;;-2.38;67.80;97821.78;5064311;28;20067;-61
2022/01/16 03:02:05;;;;;;;19.67;8.57;;;;;;;-2.37;68.12;97821.50;5082998;28;20051;-61
2022/01/16 03:04:33;;;;;;;18.90;8.25;;;;;;;-2.13;68.46;97857.91;5083736;28;20059;-61
2022/01/16 03:07:02;;;;;;;24.42;9.02;;;;;;;-2.43;69.76;97819.88;5086575;28;20052;-62
2022/01/16 03:09:45;;;;;;;28.17;8.35;;;;;;;-2.51;69.75;97844.81;5087597;28;20052;-61
2022/01/16 03:12:11;;;;;;;19.77;6.47;;;;;;;-5.41;68.77;97347.50;5085543;28;20056;-61
2022/01/16 03:14:38;;;;;;;23.92;8.45;;;;;;;-2.17;68.35;97867.69;5086711;28;20050;-62
2022/01/16 03:17:06;;;;;;;19.80;6.20;;;;;;;-2.28;68.48;97866.03;5086377;28;20048;-64
2022/01/16 03:22:18;;;;;;;22.08;7.35;;;;;;;-2.38;70.54;97855.16;5086640;28;20075;-61
2022/01/16 03:24:46;;;;;;;19.52;6.10;;;;;;;-3.21;70.68;97763.28;5086945;28;20055;-61
2022/01/16 03:27:19;;;;;;;12.40;4.13;;;;;;;-2.68;71.01;97865.91;5086678;28;20056;-61
2022/01/16 03:29:57;;;;;;;12.13;3.35;;;;;;;-2.63;70.71;97876.78;5086688;28;20055;-61
2022/01/16 03:32:24;;;;;;;12.93;4.18;;;;;;;-2.66;70.93;97890.88;5086184;28;20554;-62
2022/01/16 03:34:50;;;;;;;13.18;4.53;;;;;;;-3.07;70.75;97818.59;5086679;28;20054;-62
2022/01/16 03:37:18;;;;;;;9.25;3.75;;;;;;;-2.67;70.63;97883.00;5085964;28;20048;-61
2022/01/16 03:39:45;;;;;;;13.85;3.90;;;;;;;-3.28;70.85;97795.19;5086689;28;20056;-64
2022/01/16 03:42:11;;;;;;;19.95;5.18;;;;;;;-2.84;70.54;97849.84;5084476;28;20052;-62
2022/01/16 03:44:38;;;;;;;24.10;5.80;;;;;;;-2.54;69.58;97887.91;5086308;28;20058;-61
2022/01/16 03:47:05;;;;;;;17.13;5.90;;;;;;;-2.61;69.98;97885.47;5084637;28;20098;-64
2022/01/16 03:49:32;;;;;;;16.85;4.75;;;;;;;-2.63;70.56;97890.34;5084764;28;20048;-63
2022/01/16 03:51:59;;;;;;;17.85;6.70;;;;;;;-2.73;70.61;97889.47;5084522;28;20060;-61
2022/01/16 03:54:29;;;;;;;22.27;6.18;;;;;;;-2.82;70.99;97891.88;5086160;28;20059;-61
2022/01/16 03:56:55;;;;;;;25.35;7.50;;;;;;;-2.68;70.89;97897.63;5085682;28;20066;-63
2022/01/16 03:59:22;;;;;;;23.42;7.72;;;;;;;-5.81;70.51;97390.41;5086407;28;20056;-61
2022/01/16 04:01:50;;;;;;;18.80;5.68;;;;;;;-3.31;71.21;97814.69;5065544;28;20450;-61
2022/01/16 04:04:16;;;;;;;14.80;4.47;;;;;;;-2.89;72.23;97902.13;5064784;28;20087;-61
2022/01/16 04:06:43;;;;;;;30.17;8.63;;;;;;;-3.06;72.16;97877.13;5065812;28;20062;-62
2022/01/16 04:09:10;;;;;;;33.53;9.40;;;;;;;-2.93;72.26;97922.72;5065914;28;20466;-62
2022/01/16 04:11:45;;;;;;;30.67;10.23;;;;;;;-2.86;71.63;97908.94;5065664;28;20641;-63
2022/01/16 04:14:21;;;;;;;30.33;9.52;;;;;;;-2.83;72.60;97911.94;5065833;28;20044;-63
2022/01/16 04:16:48;;;;;;;19.48;7.18;;;;;;;-2.88;72.48;97903.78;5064736;28;20048;-61
2022/01/16 04:19:14;;;;;;;12.40;4.20;;;;;;;-3.13;72.28;97914.47;5064055;28;20616;-61
2022/01/16 04:21:41;;;;;;;20.63;7.60;;;;;;;-3.05;72.19;97935.63;5065710;28;20048;-61
2022/01/16 04:24:08;;;;;;;18.67;7.72;;;;;;;-3.08;71.83;97924.53;5066221;28;20051;-63
2022/01/16 04:26:34;;;;;;;23.75;9.02;;;;;;;-3.22;73.25;97902.47;5065496;28;20045;-61
2022/01/16 04:29:01;;;;;;;33.03;10.55;;;;;;;-4.66;73.09;97701.78;5064933;28;20525;-64
2022/01/16 04:31:28;;;;;;;19.23;7.95;;;;;;;-3.01;72.43;97920.50;5063395;28;20049;-62
2022/01/16 04:33:55;;;;;;;29.67;8.50;;;;;;;-3.04;72.15;97948.13;5063596;28;20540;-61
2022/01/16 04:36:21;;;;;;;31.35;9.93;;;;;;;-3.02;72.05;97924.31;5063562;28;20502;-61
2022/01/16 04:38:50;;;;;;;31.52;11.23;;;;;;;-3.04;73.57;97977.94;5065161;28;20044;-61
2022/01/16 04:44:04;;;;;;;42.15;14.18;;;;;;;-3.00;73.50;97934.88;5063495;28;20064;-62
2022/01/16 04:46:32;;;;;;;63.83;20.33;;;;;;;-2.96;73.42;97928.66;5064855;28;20080;-63
2022/01/16 04:49:00;;;;;;;29.98;11.38;;;;;;;-3.08;72.23;97928.03;5064819;28;20048;-61
2022/01/16 04:51:28;;;;;;;47.58;15.20;;;;;;;-3.02;72.28;97931.59;5063064;28;20438;-61
2022/01/16 04:53:56;;;;;;;47.85;15.30;;;;;;;-2.98;71.59;97930.81;5064440;28;20503;-61
2022/01/16 04:56:22;;;;;;;42.08;15.30;;;;;;;-3.08;72.73;97928.84;5062916;28;20499;-61
2022/01/16 04:58:49;;;;;;;52.25;19.95;;;;;;;-3.13;73.19;97925.31;5065172;28;20056;-61
2022/01/16 05:01:16;;;;;;;48.60;20.73;;;;;;;-3.22;73.70;97929.56;5075486;28;20064;-63
2022/01/16 05:03:43;;;;;;;53.03;18.95;;;;;;;-3.24;74.16;97939.88;5084758;28;20063;-63
2022/01/16 05:06:10;;;;;;;54.47;17.55;;;;;;;-3.33;74.12;97927.88;5084256;28;20052;-61
2022/01/16 05:08:37;;;;;;;58.25;21.92;;;;;;;-3.25;73.87;97920.09;5084344;28;20056;-61
2022/01/16 05:11:06;;;;;;;65.43;22.48;;;;;;;-3.19;74.10;97918.22;5084679;28;20059;-63
2022/01/16 05:18:53;;;;;;;37.05;13.57;;;;;;;-3.64;74.21;97866.47;5084145;28;20054;-62
2022/01/16 05:21:20;;;;;;;31.58;11.07;;;;;;;-3.26;74.88;97912.22;5084532;28;20416;-61
2022/01/16 05:23:47;;;;;;;31.63;9.70;;;;;;;-3.92;75.10;97877.63;5084726;28;20056;-61
2022/01/16 05:26:21;;;;;;;25.17;8.10;;;;;;;-3.58;75.22;97924.97;5084408;28;20093;-62
2022/01/16 05:28:47;;;;;;;30.73;10.13;;;;;;;-3.76;76.44;97915.34;5084056;28;20078;-62
2022/01/16 05:31:14;;;;;;;59.10;16.90;;;;;;;-3.81;76.75;97925.34;5084141;28;20059;-60
2022/01/16 05:33:41;;;;;;;62.20;18.95;;;;;;;-4.04;76.78;97904.00;5083977;28;20059;-59
2022/01/16 05:36:07;;;;;;;43.00;14.43;;;;;;;-3.86;76.81;97928.00;5084180;28;20048;-61
2022/01/16 05:38:34;;;;;;;39.60;13.20;;;;;;;-4.37;76.68;97828.50;5083948;28;20519;-60
2022/01/16 05:41:01;;;;;;;59.60;17.17;;;;;;;-3.65;75.98;97935.22;5082342;28;20064;-60
2022/01/16 05:43:28;;;;;;;50.03;17.05;;;;;;;-3.78;76.50;97936.44;5084134;28;20062;-61
2022/01/16 05:45:55;;;;;;;34.45;13.45;;;;;;;-3.82;77.23;97939.91;5084806;28;20051;-61
2022/01/16 05:48:22;;;;;;;34.95;12.20;;;;;;;-4.27;76.78;97866.47;5083936;28;20048;-62
2022/01/16 05:50:49;;;;;;;37.72;12.18;;;;;;;-4.35;76.45;97842.59;5083818;28;20048;-62
2022/01/16 05:53:16;;;;;;;36.58;12.55;;;;;;;-3.72;76.72;97950.84;5083491;28;20048;-60
2022/01/16 05:55:42;;;;;;;46.53;16.30;;;;;;;-3.74;76.54;97947.56;5083783;28;20060;-62
2022/01/16 05:58:10;;;;;;;61.85;19.80;;;;;;;-3.69;76.50;97953.03;5083678;28;20051;-61
2022/01/16 06:00:38;;;;;;;57.75;18.33;;;;;;;-3.64;75.35;97958.50;5078262;28;20059;-62
2022/01/16 06:03:08;;;;;;;52.67;17.15;;;;;;;-3.64;75.56;97963.91;5063458;28;20052;-60
2022/01/16 06:05:35;;;;;;;39.25;13.52;;;;;;;-3.49;75.36;97955.91;5063632;28;20053;-60
2022/01/16 06:08:08;;;;;;;38.35;12.15;;;;;;;-3.99;75.27;97950.06;5063904;28;20049;-60
2022/01/16 06:10:35;;;;;;;34.08;13.52;;;;;;;-3.30;74.68;97947.13;5063978;28;20055;-62
2022/01/16 06:13:04;;;;;;;27.70;10.40;;;;;;;-3.40;74.66;97959.78;5063684;28;20044;-61
2022/01/16 06:15:31;;;;;;;31.67;12.55;;;;;;;-3.41;75.58;97960.84;5063265;28;20048;-61
2022/01/16 06:18:00;;;;;;;60.45;21.92;;;;;;;-3.77;74.02;97877.72;5063525;28;20048;-63
2022/01/16 06:20:27;;;;;;;58.65;20.90;;;;;;;-3.19;73.63;97961.56;5063058;28;20445;-63
2022/01/16 06:22:54;;;;;;;46.35;16.30;;;;;;;-3.13;74.26;97965.97;5062899;28;20044;-62
2022/01/16 06:25:23;;;;;;;43.05;14.38;;;;;;;-3.03;74.34;97982.25;5062937;28;20052;-63
2022/01/16 06:27:50;;;;;;;22.98;9.50;;;;;;;-3.16;74.44;97944.78;5063168;28;20916;-61
2022/01/16 06:30:17;;;;;;;25.40;9.10;;;;;;;-3.14;75.40;97975.13;5063909;28;20052;-63
2022/01/16 06:32:44;;;;;;;25.00;9.82;;;;;;;-3.05;74.42;97984.41;5061897;28;20057;-63
2022/01/16 06:35:13;;;;;;;22.83;9.32;;;;;;;-2.94;74.04;97975.25;5061386;28;20056;-62
2022/01/16 06:37:40;;;;;;;27.90;10.35;;;;;;;-2.66;73.83;98003.91;5063412;28;20052;-61
2022/01/16 06:40:08;;;;;;;23.77;9.88;;;;;;;-2.53;73.38;98009.66;5064446;28;20049;-62
2022/01/16 06:42:37;;;;;;;26.48;10.52;;;;;;;-2.34;72.08;98007.34;5067303;28;20048;-61
2022/01/16 06:45:05;;;;;;;65.78;26.63;;;;;;;-2.16;71.56;98012.28;5040378;28;20499;-63
2022/01/16 06:47:32;;;;;;;99.78;35.97;;;;;;;-2.48;71.07;97941.91;5067116;28;20062;-63
2022/01/16 06:49:58;;;;;;;99.30;38.03;;;;;;;-2.00;70.24;98008.53;5067653;28;20056;-63
2022/01/16 06:52:25;;;;;;;112.85;43.58;;;;;;;-1.80;70.07;98009.41;5066932;28;20531;-64
2022/01/16 06:54:52;;;;;;;82.97;32.05;;;;;;;-1.98;69.10;97990.94;5066427;28;20056;-62
2022/01/16 06:57:19;;;;;;;44.55;17.73;;;;;;;-1.50;67.88;97997.78;5066330;28;20062;-63
2022/01/16 06:59:47;;;;;;;47.13;16.42;;;;;;;-1.51;68.47;98017.91;5066496;28;20495;-63
2022/01/16 07:02:16;;;;;;;52.92;19.98;;;;;;;-2.54;67.62;97801.13;5064985;28;20527;-62
2022/01/16 07:04:46;;;;;;;44.17;17.00;;;;;;;-1.16;67.27;97987.22;5066750;28;20051;-62
2022/01/16 07:07:14;;;;;;;35.28;14.82;;;;;;;-1.00;66.25;97997.81;5065463;28;20087;-63
2022/01/16 07:09:44;;;;;;;34.42;12.55;;;;;;;-0.96;65.88;97993.47;5067027;28;20052;-63
2022/01/16 07:12:11;;;;;;;23.98;8.55;;;;;;;-0.69;65.87;98020.34;5064690;28;20061;-64
2022/01/16 07:14:38;;;;;;;42.65;13.43;;;;;;;-0.49;64.79;98031.19;5064844;28;20057;-65
2022/01/16 07:17:05;;;;;;;57.92;20.95;;;;;;;-0.32;64.22;98032.50;5065879;28;20165;-64
2022/01/16 07:19:31;;;;;;;67.10;23.42;;;;;;;-0.14;63.78;98033.81;5065986;28;20052;-64
2022/01/16 07:21:58;;;;;;;74.07;23.33;;;;;;;0.03;62.97;98039.75;5063856;28;20135;-63
2022/01/16 07:24:25;;;;;;;71.30;26.92;;;;;;;-0.14;62.54;97984.78;5066744;28;20060;-64
2022/01/16 07:26:54;;;;;;;63.08;24.50;;;;;;;0.01;61.93;97982.03;5064777;28;20439;-65
2022/01/16 07:29:21;;;;;;;89.75;28.98;;;;;;;0.17;62.38;97963.69;5066179;28;20109;-64
2022/01/16 07:31:48;;;;;;;90.53;35.65;;;;;;;0.76;62.39;98016.97;5066272;28;20067;-63
2022/01/16 07:34:15;;;;;;;93.07;37.75;;;;;;;0.98;61.09;98030.19;5066211;28;20053;-64
2022/01/16 07:36:41;;;;;;;63.92;28.08;;;;;;;1.15;60.63;98023.22;5065630;28;20066;-65
2022/01/16 07:39:08;;;;;;;75.28;28.35;;;;;;;0.76;60.99;97929.72;5065767;28;20057;-64
2022/01/16 07:41:35;;;;;;;66.75;26.08;;;;;;;1.58;60.05;98030.44;5065991;28;20052;-64
2022/01/16 07:44:01;;;;;;;53.00;20.25;;;;;;;1.73;57.73;98032.19;5064094;28;20052;-63
2022/01/16 07:46:28;;;;;;;57.97;20.42;;;;;;;1.91;57.87;98038.84;5065923;28;20167;-64
2022/01/16 07:48:56;;;;;;;125.50;37.22;;;;;;;2.09;56.84;98043.53;5066076;28;20110;-63
2022/01/16 07:51:24;;;;;;;105.22;34.88;;;;;;;2.02;57.31;98002.09;5063994;28;20068;-63
2022/01/16 07:53:52;;;;;;;34.97;13.00;;;;;;;2.05;57.58;97979.66;5065378;28;20067;-64
2022/01/16 07:56:19;;;;;;;31.85;13.43;;;;;;;2.46;56.83;98046.34;5065914;28;20053;-62
2022/01/16 07:58:46;;;;;;;49.45;16.27;;;;;;;0.14;56.18;97648.31;5064146;28;20060;-64
2022/01/16 08:01:12;;;;;;;40.78;14.75;;;;;;;2.58;56.34;98049.44;5063553;28;20068;-62
2022/01/16 08:03:39;;;;;;;46.80;17.80;;;;;;;2.79;56.29;98051.63;5064430;28;20060;-62
2022/01/16 08:06:06;;;;;;;37.58;14.90;;;;;;;2.49;56.01;97993.81;5064053;28;20056;-65
2022/01/16 08:08:33;;;;;;;28.90;13.10;;;;;;;3.12;55.72;98049.75;5065154;28;20399;-62
2022/01/16 08:10:59;;;;;;;33.53;14.30;;;;;;;3.29;55.61;98047.28;5064200;28;20048;-62
2022/01/16 08:13:26;;;;;;;57.05;23.25;;;;;;;3.43;54.21;98045.38;5063802;28;20048;-62
2022/01/16 08:15:53;;;;;;;31.52;12.57;;;;;;;3.49;54.23;98044.22;5063343;28;20595;-64
2022/01/16 08:18:20;;;;;;;25.92;11.15;;;;;;;3.64;54.46;98024.75;5064891;28;20559;-62
2022/01/16 08:20:46;;;;;;;28.40;10.90;;;;;;;3.72;53.30;98010.34;5064941;28;20170;-64
2022/01/16 08:23:13;;;;;;;19.80;9.25;;;;;;;4.00;53.16;98022.97;5064172;28;20437;-64
2022/01/16 08:25:41;;;;;;;21.70;8.35;;;;;;;3.82;52.40;98026.63;5065203;28;20052;-64
2022/01/16 08:28:08;;;;;;;30.88;11.18;;;;;;;3.72;52.90;97973.94;5063857;28;20060;-64
2022/01/16 08:30:34;;;;;;;30.17;12.48;;;;;;;4.31;52.80;98026.72;5064979;28;20051;-64
2022/01/16 08:33:01;;;;;;;24.30;10.80;;;;;;;4.10;52.12;97989.88;5064814;28;20052;-63
2022/01/16 08:35:28;;;;;;;23.10;10.15;;;;;;;4.57;50.47;98026.97;5064624;28;20059;-65
2022/01/16 08:37:54;;;;;;;64.43;22.67;;;;;;;4.32;50.82;97976.25;5064592;28;20048;-64
2022/01/16 08:40:21;;;;;;;26.40;10.48;;;;;;;4.53;51.07;98021.31;5065053;28;20053;-65
2022/01/16 08:42:48;;;;;;;16.42;6.90;;;;;;;4.66;51.13;98020.47;5063843;28;20097;-63
2022/01/16 08:45:16;;;;;;;44.58;16.00;;;;;;;4.93;51.51;98019.59;5064895;28;20310;-65
2022/01/16 08:47:43;;;;;;;41.95;16.40;;;;;;;4.90;51.14;98011.16;5080150;28;20059;-65
2022/01/16 08:50:12;;;;;;;12.57;5.47;;;;;;;3.36;51.12;97965.56;5064665;28;20048;-65
2022/01/16 08:52:39;;;;;;;11.77;3.67;;;;;;;3.12;51.55;98016.91;5064079;28;20048;-63
2022/01/16 08:55:09;;;;;;;12.93;4.90;;;;;;;3.28;53.49;98023.75;5064638;28;20153;-62
2022/01/16 08:57:37;;;;;;;10.45;4.25;;;;;;;3.35;52.80;97980.34;5079568;28;20063;-62
2022/01/16 09:00:06;;;;;;;11.65;4.70;;;;;;;3.72;51.93;98015.84;5064370;28;20048;-63
2022/01/16 09:02:33;;;;;;;12.25;4.72;;;;;;;3.52;50.98;97983.34;5061824;28;20052;-64
2022/01/16 09:05:00;;;;;;;15.15;4.35;;;;;;;3.80;51.04;97993.22;5064151;28;20052;-64
2022/01/16 09:07:26;;;;;;;16.67;5.10;;;;;;;4.10;50.75;98011.81;5062509;28;20080;-63
2022/01/16 09:09:53;;;;;;;11.75;4.60;;;;;;;4.13;50.55;98004.88;5062583;28;20473;-63
2022/01/16 09:12:20;;;;;;;12.85;5.47;;;;;;;4.07;51.01;98006.94;5064197;28;20040;-64
2022/01/16 09:14:47;;;;;;;10.50;4.68;;;;;;;4.30;50.31;98077.19;5064054;28;20056;-64
2022/01/16 09:17:13;;;;;;;13.63;5.43;;;;;;;4.45;50.70;98002.84;5063625;28;20048;-62
2022/01/16 09:19:42;;;;;;;10.35;4.78;;;;;;;4.05;50.44;98008.34;5064079;28;20053;-61
2022/01/16 09:22:08;;;;;;;12.23;5.20;;;;;;;4.18;51.02;97969.16;5063899;28;20048;-63
2022/01/16 09:24:35;;;;;;;14.40;5.10;;;;;;;4.24;50.17;97935.84;5064073;28;20052;-63
2022/01/16 09:27:02;;;;;;;12.07;5.40;;;;;;;4.83;49.31;97984.13;5064084;28;20049;-65
2022/01/16 09:29:29;;;;;;;14.10;5.38;;;;;;;4.59;50.29;97936.94;5062443;28;20057;-62
2022/01/16 09:31:56;;;;;;;14.75;5.75;;;;;;;5.20;49.41;97985.72;5063776;28;20054;-63
2022/01/16 09:34:22;;;;;;;13.15;5.75;;;;;;;5.54;49.07;97980.44;5063760;28;20494;-63
2022/01/16 09:36:49;;;;;;;11.82;4.38;;;;;;;5.62;48.04;97983.22;5062176;28;20051;-62
2022/01/16 09:39:16;;;;;;;8.25;4.47;;;;;;;5.31;48.79;97976.09;5063843;28;20048;-63
2022/01/16 09:41:43;;;;;;;12.77;4.85;;;;;;;5.01;48.02;97925.47;5061497;28;20056;-63
2022/01/16 09:44:09;;;;;;;11.52;4.78;;;;;;;5.80;47.15;97973.94;5063769;28;20049;-63
2022/01/16 09:46:36;;;;;;;11.45;3.75;;;;;;;6.05;45.06;97980.69;5063485;28;20065;-63
2022/01/16 09:49:04;;;;;;;9.95;3.58;;;;;;;5.61;46.29;97964.31;5063525;28;20253;-63
2022/01/16 09:51:32;;;;;;;8.35;3.42;;;;;;;5.41;45.93;97915.38;5062068;28;20052;-65
2022/01/16 09:53:59;;;;;;;6.30;3.28;;;;;;;5.80;46.27;97923.66;5063115;28;20056;-65
2022/01/16 09:56:26;;;;;;;9.15;3.80;;;;;;;6.26;46.42;97954.22;5063109;28;20058;-65
2022/01/16 09:58:52;;;;;;;10.90;4.28;;;;;;;6.37;45.55;97950.03;5062019;28;20048;-66
2022/01/16 10:01:20;;;;;;;10.23;3.83;;;;;;;6.23;44.86;97927.34;5063107;28;20052;-65
2022/01/16 10:03:47;;;;;;;7.55;3.33;;;;;;;6.02;44.58;97927.13;5063650;28;20071;-63
2022/01/16 10:06:20;;;;;;;10.50;3.55;;;;;;;5.78;45.78;97942.41;5063863;28;20112;-62
2022/01/16 10:08:52;;;;;;;10.10;4.35;;;;;;;5.94;45.88;97935.38;5062217;28;20123;-64
2022/01/16 10:11:34;;;;;;;7.03;3.70;;;;;;;5.84;45.39;97886.16;5062509;28;20442;-65
2022/01/16 10:14:13;;;;;;;8.32;3.42;;;;;;;5.83;44.46;97884.56;5063248;28;20053;-66
2022/01/16 10:16:41;;;;;;;8.82;3.40;;;;;;;5.81;45.08;97925.25;5061919;28;20055;-63
2022/01/16 10:19:26;;;;;;;7.82;3.40;;;;;;;5.92;44.61;97905.44;5062247;28;20115;-63
2022/01/16 10:22:00;;;;;;;6.72;3.47;;;;;;;6.06;44.68;97905.31;5063733;28;20055;-64
2022/01/16 10:24:30;;;;;;;6.28;3.22;;;;;;;6.27;44.07;97900.00;5063788;28;20049;-63
2022/01/16 10:27:24;;;;;;;7.32;3.53;;;;;;;6.88;43.54;97914.28;5062600;28;20054;-65
2022/01/16 10:29:53;;;;;;;11.23;4.03;;;;;;;6.78;43.04;97911.84;5060751;28;20060;-63
2022/01/16 10:32:31;;;;;;;7.68;3.67;;;;;;;5.85;43.90;97915.25;5063264;28;20044;-63
2022/01/16 10:35:12;;;;;;;6.03;3.42;;;;;;;6.17;43.61;97906.63;5063537;28;20049;-61
2022/01/16 10:37:42;;;;;;;10.73;3.72;;;;;;;6.40;42.59;97894.38;5063487;28;20518;-63
2022/01/16 10:40:16;;;;;;;9.13;3.92;;;;;;;6.52;41.59;97905.53;5061883;28;20060;-62
2022/01/16 10:42:50;;;;;;;7.68;2.78;;;;;;;6.79;41.00;97885.94;5063331;28;20068;-63
2022/01/16 10:45:18;;;;;;;8.85;3.65;;;;;;;6.84;40.46;97884.97;5063076;28;20049;-62
2022/01/16 10:47:54;;;;;;;9.90;3.35;;;;;;;6.96;40.52;97883.16;5063040;28;20584;-63
2022/01/16 10:50:32;;;;;;;6.47;2.75;;;;;;;7.13;40.44;97879.56;5063459;28;20143;-63
2022/01/16 10:53:17;;;;;;;9.65;3.85;;;;;;;7.38;39.66;97876.72;5063254;28;20113;-65
2022/01/16 10:55:51;;;;;;;6.95;3.08;;;;;;;7.59;40.28;97866.59;5063345;28;20495;-65
2022/01/16 10:58:37;;;;;;;8.30;3.33;;;;;;;6.92;39.10;97744.53;5061967;28;20435;-63
2022/01/16 11:01:11;;;;;;;6.22;3.92;;;;;;;7.91;39.29;97861.56;5068362;28;20061;-63
2022/01/16 11:03:53;;;;;;;11.23;5.33;;;;;;;8.11;38.40;97855.31;5061732;28;20067;-63
2022/01/16 11:06:23;;;;;;;14.02;4.72;;;;;;;8.21;38.19;97854.91;5063384;28;20052;-63
2022/01/16 11:08:56;;;;;;;9.50;3.63;;;;;;;7.51;38.73;97850.91;5062794;28;20056;-63
2022/01/16 11:11:24;;;;;;;8.50;4.07;;;;;;;7.35;39.43;97866.38;5062771;28;20109;-64
2022/01/16 11:13:54;;;;;;;10.88;3.83;;;;;;;7.04;39.78;97816.25;5061647;28;20427;-66
2022/01/16 11:16:23;;;;;;;10.27;3.55;;;;;;;7.49;39.77;97861.44;5063096;28;20426;-64
2022/01/16 11:18:51;;;;;;;6.00;3.15;;;;;;;7.65;38.81;97853.44;5062954;28;20163;-64
2022/01/16 11:21:30;;;;;;;7.30;3.85;;;;;;;7.66;39.10;97844.84;5061264;28;20063;-64
2022/01/16 11:24:22;;;;;;;10.73;4.45;;;;;;;7.79;39.24;97847.69;5063198;28;20434;-63
2022/01/16 11:26:50;;;;;;;9.23;4.10;;;;;;;7.53;38.56;97839.56;5064867;28;20474;-66
2022/01/16 11:29:17;;;;;;;10.15;3.38;;;;;;;7.52;39.44;97838.72;5066816;28;20956;-64
2022/01/16 11:31:47;;;;;;;7.00;3.28;;;;;;;7.30;38.65;97781.13;5066601;28;20087;-64
2022/01/16 11:34:14;;;;;;;6.90;2.90;;;;;;;7.32;38.92;97794.56;5066147;28;20102;-64
2022/01/16 11:36:42;;;;;;;8.48;3.08;;;;;;;7.13;39.15;97752.84;5066531;28;20055;-64
2022/01/16 11:39:11;;;;;;;5.63;3.25;;;;;;;7.11;39.51;97794.47;5066389;28;20528;-64
2022/01/16 11:41:56;;;;;;;8.57;3.50;;;;;;;7.57;39.80;97824.78;5064789;28;20052;-64
2022/01/16 11:44:31;;;;;;;6.82;3.00;;;;;;;7.63;38.81;97822.66;5066052;28;20527;-64
2022/01/16 11:47:03;;;;;;;7.47;3.15;;;;;;;7.35;38.51;97763.63;5065888;28;20051;-66
2022/01/16 11:49:43;;;;;;;8.77;4.40;;;;;;;7.54;38.79;97772.25;5064402;28;20063;-63
2022/01/16 11:52:12;;;;;;;7.63;3.90;;;;;;;7.95;38.59;97810.13;5064522;28;20056;-64
2022/01/16 11:54:42;;;;;;;9.95;3.95;;;;;;;7.85;38.79;97785.69;5065821;28;20049;-64
2022/01/16 11:57:27;;;;;;;5.25;3.08;;;;;;;8.14;38.90;97821.53;5064380;28;20068;-64
2022/01/16 12:00:08;;;;;;;6.05;3.35;;;;;;;8.15;37.92;97807.41;5066262;28;20057;-64
2022/01/16 12:02:44;;;;;;;9.55;3.60;;;;;;;8.27;38.31;97812.19;5065813;28;20170;-64
2022/01/16 12:05:19;;;;;;;12.05;5.85;;;;;;;8.28;38.31;97811.06;5073399;28;20470;-62
2022/01/16 12:07:48;;;;;;;8.18;3.67;;;;;;;7.84;38.30;97806.16;5065959;28;20067;-65
2022/01/16 12:10:36;;;;;;;7.60;3.53;;;;;;;7.87;38.42;97788.94;5065647;28;20087;-65
2022/01/16 12:13:03;;;;;;;8.27;3.53;;;;;;;8.22;38.73;97806.88;5066037;28;20074;-65
2022/01/16 12:15:32;;;;;;;7.57;3.40;;;;;;;7.98;38.23;97746.84;5065475;28;20056;-64